sensor_id;sensor_type;location;lat;lon;timestamp;pressure;altitude;pressure_sealevel;temperature;humidity
77450;BME280;66536;53.150;18.172;2023-03-26T00:16:23;99822.05;;;8.38;76.55
77450;BME280;66536;53.150;18.172;2023-03-26T00:20:23;99812.23;;;8.25;76.81
77450;BME280;66536;53.150;18.172;2023-03-26T00:24:24;99804.98;;;8.12;77.00
77450;BME280;66536;53.150;18.172;2023-03-26T00:32:06;99799.77;;;7.82;77.54
77450;BME280;66536;53.150;18.172;2023-03-26T00:39:43;99797.23;;;7.54;77.99
77450;BME280;66536;53.150;18.172;2023-03-26T01:08:45;99773.86;;;7.47;78.49
77450;BME280;66536;53.150;18.172;2023-03-26T01:16:51;99766.02;;;7.33;79.25
77450;BME280;66536;53.150;18.172;2023-03-26T01:20:23;99763.37;;;7.27;79.16
77450;BME280;66536;53.150;18.172;2023-03-26T01:23:21;99763.15;;;7.25;79.24
77450;BME280;66536;53.150;18.172;2023-03-26T01:30:26;99760.88;;;7.27;79.09
77450;BME280;66536;53.150;18.172;2023-03-26T01:34:43;99764.86;;;7.30;79.08
77450;BME280;66536;53.150;18.172;2023-03-26T01:37:36;99763.06;;;7.32;79.12
77450;BME280;66536;53.150;18.172;2023-03-26T01:41:16;99764.39;;;7.35;79.04
77450;BME280;66536;53.150;18.172;2023-03-26T01:48:18;99757.58;;;7.34;79.05
77450;BME280;66536;53.150;18.172;2023-03-26T01:51:56;99762.91;;;7.32;79.13
77450;BME280;66536;53.150;18.172;2023-03-26T01:58:56;99762.59;;;7.32;79.07
77450;BME280;66536;53.150;18.172;2023-03-26T02:06:06;99754.96;;;7.31;79.10
77450;BME280;66536;53.150;18.172;2023-03-26T02:12:18;99747.60;;;7.35;78.81
77450;BME280;66536;53.150;18.172;2023-03-26T02:15:29;99747.58;;;7.39;78.75
77450;BME280;66536;53.150;18.172;2023-03-26T02:18:51;99746.88;;;7.42;78.63
77450;BME280;66536;53.150;18.172;2023-03-26T02:21:32;99749.29;;;7.44;78.42
77450;BME280;66536;53.150;18.172;2023-03-26T02:24:32;99748.08;;;7.41;78.56
77450;BME280;66536;53.150;18.172;2023-03-26T02:27:17;99745.25;;;7.38;78.51
77450;BME280;66536;53.150;18.172;2023-03-26T02:30:55;99742.22;;;7.39;78.49
77450;BME280;66536;53.150;18.172;2023-03-26T02:33:49;99738.39;;;7.39;78.43
77450;BME280;66536;53.150;18.172;2023-03-26T02:37:47;99737.27;;;7.40;78.49
77450;BME280;66536;53.150;18.172;2023-03-26T02:44:46;99737.23;;;7.44;78.29
77450;BME280;66536;53.150;18.172;2023-03-26T02:48:23;99734.52;;;7.47;78.27
77450;BME280;66536;53.150;18.172;2023-03-26T02:51:07;99730.74;;;7.50;78.24
77450;BME280;66536;53.150;18.172;2023-03-26T02:54:02;99722.98;;;7.52;78.05
77450;BME280;66536;53.150;18.172;2023-03-26T02:56:59;99726.55;;;7.49;78.27
77450;BME280;66536;53.150;18.172;2023-03-26T02:59:50;99723.73;;;7.46;78.29
77450;BME280;66536;53.150;18.172;2023-03-26T03:02:45;99719.32;;;7.46;78.48
77450;BME280;66536;53.150;18.172;2023-03-26T03:06:27;99716.08;;;7.47;78.52
77450;BME280;66536;53.150;18.172;2023-03-26T03:08:57;99718.60;;;7.48;78.50
77450;BME280;66536;53.150;18.172;2023-03-26T03:12:16;99716.41;;;7.51;78.48
77450;BME280;66536;53.150;18.172;2023-03-26T03:14:52;99717.83;;;7.52;78.46
77450;BME280;66536;53.150;18.172;2023-03-26T03:19:46;99715.21;;;7.52;78.47
77450;BME280;66536;53.150;18.172;2023-03-26T03:22:39;99710.39;;;7.51;78.43
77450;BME280;66536;53.150;18.172;2023-03-26T03:29:22;99706.63;;;7.53;78.41
77450;BME280;66536;53.150;18.172;2023-03-26T03:32:36;99708.27;;;7.49;78.54
77450;BME280;66536;53.150;18.172;2023-03-26T03:40:08;99709.40;;;7.39;78.72
77450;BME280;66536;53.150;18.172;2023-03-26T03:43:29;99708.78;;;7.41;78.64
77450;BME280;66536;53.150;18.172;2023-03-26T03:46:29;99711.70;;;7.43;78.57
77450;BME280;66536;53.150;18.172;2023-03-26T03:49:02;99711.45;;;7.45;78.42
77450;BME280;66536;53.150;18.172;2023-03-26T03:52:48;99709.66;;;7.46;78.25
77450;BME280;66536;53.150;18.172;2023-03-26T03:56:15;99708.80;;;7.45;78.41
77450;BME280;66536;53.150;18.172;2023-03-26T03:59:20;99712.16;;;7.47;78.38
77450;BME280;66536;53.150;18.172;2023-03-26T04:02:18;99707.48;;;7.47;78.35
77450;BME280;66536;53.150;18.172;2023-03-26T04:05:03;99712.66;;;7.48;78.39
77450;BME280;66536;53.150;18.172;2023-03-26T04:07:54;99706.34;;;7.51;78.39
77450;BME280;66536;53.150;18.172;2023-03-26T04:10:46;99705.91;;;7.51;78.29
77450;BME280;66536;53.150;18.172;2023-03-26T04:14:04;99705.44;;;7.50;78.43
77450;BME280;66536;53.150;18.172;2023-03-26T04:17:21;99705.80;;;7.54;78.43
77450;BME280;66536;53.150;18.172;2023-03-26T04:19:54;99704.11;;;7.51;78.41
77450;BME280;66536;53.150;18.172;2023-03-26T04:22:50;99702.66;;;7.49;78.35
77450;BME280;66536;53.150;18.172;2023-03-26T04:32:42;99692.55;;;7.57;78.58
77450;BME280;66536;53.150;18.172;2023-03-26T04:36:00;99692.02;;;7.56;78.69
77450;BME280;66536;53.150;18.172;2023-03-26T04:38:52;99691.58;;;7.55;78.92
77450;BME280;66536;53.150;18.172;2023-03-26T04:42:16;99693.00;;;7.53;78.81
77450;BME280;66536;53.150;18.172;2023-03-26T04:44:59;99691.51;;;7.53;78.75
77450;BME280;66536;53.150;18.172;2023-03-26T04:47:54;99690.37;;;7.52;78.81
77450;BME280;66536;53.150;18.172;2023-03-26T04:50:26;99690.81;;;7.52;78.98
77450;BME280;66536;53.150;18.172;2023-03-26T04:52:57;99687.02;;;7.50;79.28
77450;BME280;66536;53.150;18.172;2023-03-26T04:55:58;99687.71;;;7.47;79.41
77450;BME280;66536;53.150;18.172;2023-03-26T04:58:37;99685.61;;;7.47;79.42
77450;BME280;66536;53.150;18.172;2023-03-26T05:01:05;99686.22;;;7.47;79.67
77450;BME280;66536;53.150;18.172;2023-03-26T05:03:45;99685.64;;;7.48;79.68
77450;BME280;66536;53.150;18.172;2023-03-26T05:06:49;99687.38;;;7.51;79.68
77450;BME280;66536;53.150;18.172;2023-03-26T05:09:56;99686.39;;;7.54;79.77
77450;BME280;66536;53.150;18.172;2023-03-26T05:13:02;99687.86;;;7.58;79.77
77450;BME280;66536;53.150;18.172;2023-03-26T05:15:48;99691.27;;;7.60;79.79
77450;BME280;66536;53.150;18.172;2023-03-26T05:18:42;99684.77;;;7.61;80.04
77450;BME280;66536;53.150;18.172;2023-03-26T05:21:30;99687.06;;;7.59;79.87
77450;BME280;66536;53.150;18.172;2023-03-26T05:24:28;99682.92;;;7.60;79.89
77450;BME280;66536;53.150;18.172;2023-03-26T05:27:24;99684.94;;;7.62;79.72
77450;BME280;66536;53.150;18.172;2023-03-26T05:30:00;99683.62;;;7.59;79.86
77450;BME280;66536;53.150;18.172;2023-03-26T05:36:40;99694.05;;;7.63;80.09
77450;BME280;66536;53.150;18.172;2023-03-26T05:40:41;99690.77;;;7.66;79.80
77450;BME280;66536;53.150;18.172;2023-03-26T05:43:29;99690.61;;;7.74;79.77
77450;BME280;66536;53.150;18.172;2023-03-26T05:46:05;99691.28;;;7.84;79.77
77450;BME280;66536;53.150;18.172;2023-03-26T05:48:36;99690.06;;;7.91;79.75
77450;BME280;66536;53.150;18.172;2023-03-26T05:51:04;99690.23;;;7.92;79.85
77450;BME280;66536;53.150;18.172;2023-03-26T05:53:31;99695.77;;;7.91;79.86
77450;BME280;66536;53.150;18.172;2023-03-26T05:56:11;99693.81;;;7.88;79.98
77450;BME280;66536;53.150;18.172;2023-03-26T05:59:07;99690.77;;;7.91;79.83
77450;BME280;66536;53.150;18.172;2023-03-26T06:02:01;99688.83;;;8.04;79.68
77450;BME280;66536;53.150;18.172;2023-03-26T06:04:44;99689.59;;;8.26;79.09
77450;BME280;66536;53.150;18.172;2023-03-26T06:07:35;99695.86;;;8.52;78.53
77450;BME280;66536;53.150;18.172;2023-03-26T06:10:31;99695.88;;;8.77;77.70
77450;BME280;66536;53.150;18.172;2023-03-26T06:13:04;99692.12;;;8.96;77.49
77450;BME280;66536;53.150;18.172;2023-03-26T06:15:33;99691.10;;;9.15;77.03
77450;BME280;66536;53.150;18.172;2023-03-26T06:18:38;99695.63;;;9.18;77.05
77450;BME280;66536;53.150;18.172;2023-03-26T06:21:37;99693.79;;;9.04;77.08
77450;BME280;66536;53.150;18.172;2023-03-26T06:24:20;99692.36;;;8.75;77.66
77450;BME280;66536;53.150;18.172;2023-03-26T06:27:05;99700.23;;;8.52;78.24
77450;BME280;66536;53.150;18.172;2023-03-26T06:29:43;99694.12;;;8.34;78.69
77450;BME280;66536;53.150;18.172;2023-03-26T06:32:17;99696.73;;;8.25;79.12
77450;BME280;66536;53.150;18.172;2023-03-26T06:34:51;99697.48;;;8.10;79.35
77450;BME280;66536;53.150;18.172;2023-03-26T06:37:17;99695.88;;;7.98;79.45
77450;BME280;66536;53.150;18.172;2023-03-26T06:39:50;99704.67;;;7.89;79.75
77450;BME280;66536;53.150;18.172;2023-03-26T06:42:44;99706.52;;;7.85;79.95
77450;BME280;66536;53.150;18.172;2023-03-26T06:46:45;99710.56;;;7.85;79.83
77450;BME280;66536;53.150;18.172;2023-03-26T06:49:58;99711.94;;;7.79;79.63
77450;BME280;66536;53.150;18.172;2023-03-26T06:53:44;99722.63;;;7.80;79.58
77450;BME280;66536;53.150;18.172;2023-03-26T07:00:18;99727.73;;;8.14;78.39
77450;BME280;66536;53.150;18.172;2023-03-26T07:04:14;99725.22;;;8.31;77.88
77450;BME280;66536;53.150;18.172;2023-03-26T07:07:59;99726.81;;;8.27;76.54
77450;BME280;66536;53.150;18.172;2023-03-26T07:11:33;99741.09;;;8.34;76.75
77450;BME280;66536;53.150;18.172;2023-03-26T07:14:53;99738.88;;;8.38;76.30
77450;BME280;66536;53.150;18.172;2023-03-26T07:21:44;99739.48;;;8.74;75.35
77450;BME280;66536;53.150;18.172;2023-03-26T07:25:05;99745.13;;;8.74;74.43
77450;BME280;66536;53.150;18.172;2023-03-26T07:28:28;99747.02;;;8.77;74.69
77450;BME280;66536;53.150;18.172;2023-03-26T07:31:54;99750.95;;;8.86;74.87
77450;BME280;66536;53.150;18.172;2023-03-26T07:34:59;99759.20;;;8.88;74.41
77450;BME280;66536;53.150;18.172;2023-03-26T07:45:58;99755.86;;;9.46;71.83
77450;BME280;66536;53.150;18.172;2023-03-26T07:49:22;99756.83;;;9.64;71.92
77450;BME280;66536;53.150;18.172;2023-03-26T07:57:00;99746.19;;;10.02;70.11
77450;BME280;66536;53.150;18.172;2023-03-26T07:59:56;99750.27;;;10.08;70.16
77450;BME280;66536;53.150;18.172;2023-03-26T08:03:02;99753.48;;;10.03;69.51
77450;BME280;66536;53.150;18.172;2023-03-26T08:07:17;99750.55;;;9.86;69.54
77450;BME280;66536;53.150;18.172;2023-03-26T08:11:05;99762.34;;;9.85;69.44
77450;BME280;66536;53.150;18.172;2023-03-26T08:24:55;99762.76;;;9.62;69.98
77450;BME280;66536;53.150;18.172;2023-03-26T08:27:36;99767.79;;;9.80;70.32
77450;BME280;66536;53.150;18.172;2023-03-26T08:31:42;99767.45;;;10.03;69.21
77450;BME280;66536;53.150;18.172;2023-03-26T08:34:27;99762.31;;;10.39;68.16
77450;BME280;66536;53.150;18.172;2023-03-26T08:37:34;99762.56;;;10.36;67.64
77450;BME280;66536;53.150;18.172;2023-03-26T08:40:04;99759.66;;;10.38;67.24
77450;BME280;66536;53.150;18.172;2023-03-26T09:02:35;99781.95;;;9.54;71.33
77450;BME280;66536;53.150;18.172;2023-03-26T09:06:05;99785.48;;;9.57;71.09
77450;BME280;66536;53.150;18.172;2023-03-26T09:12:19;99778.79;;;9.44;70.44
77450;BME280;66536;53.150;18.172;2023-03-26T09:15:21;99787.98;;;9.54;70.18
77450;BME280;66536;53.150;18.172;2023-03-26T09:18:45;99785.77;;;9.64;69.79
77450;BME280;66536;53.150;18.172;2023-03-26T09:29:28;99793.14;;;9.66;67.52
77450;BME280;66536;53.150;18.172;2023-03-26T09:32:41;99784.35;;;10.04;66.36
77450;BME280;66536;53.150;18.172;2023-03-26T09:35:50;99776.05;;;10.47;64.97
77450;BME280;66536;53.150;18.172;2023-03-26T09:48:39;99777.27;;;11.32;62.25
77450;BME280;66536;53.150;18.172;2023-03-26T09:51:40;99791.23;;;11.22;62.73
77450;BME280;66536;53.150;18.172;2023-03-26T09:54:53;99793.04;;;11.24;62.97
77450;BME280;66536;53.150;18.172;2023-03-26T09:57:55;99789.34;;;11.29;61.94
77450;BME280;66536;53.150;18.172;2023-03-26T10:01:19;99781.88;;;11.32;60.60
77450;BME280;66536;53.150;18.172;2023-03-26T10:04:29;99789.94;;;11.36;60.56
77450;BME280;66536;53.150;18.172;2023-03-26T10:13:24;99793.93;;;10.59;62.04
77450;BME280;66536;53.150;18.172;2023-03-26T10:25:59;99797.05;;;10.28;63.03
77450;BME280;66536;53.150;18.172;2023-03-26T10:29:10;99794.39;;;10.64;63.25
77450;BME280;66536;53.150;18.172;2023-03-26T10:32:04;99793.21;;;11.08;62.15
77450;BME280;66536;53.150;18.172;2023-03-26T10:38:12;99797.23;;;12.19;58.77
77450;BME280;66536;53.150;18.172;2023-03-26T10:47:22;99776.19;;;12.53;56.19
77450;BME280;66536;53.150;18.172;2023-03-26T10:50:22;99785.45;;;12.47;56.45
77450;BME280;66536;53.150;18.172;2023-03-26T10:53:05;99787.94;;;12.43;56.75
77450;BME280;66536;53.150;18.172;2023-03-26T10:55:43;99785.48;;;12.52;55.83
77450;BME280;66536;53.150;18.172;2023-03-26T10:58:29;99775.63;;;12.65;55.13
77450;BME280;66536;53.150;18.172;2023-03-26T11:01:04;99794.84;;;12.75;55.49
77450;BME280;66536;53.150;18.172;2023-03-26T11:03:54;99787.95;;;12.55;55.03
77450;BME280;66536;53.150;18.172;2023-03-26T11:06:52;99792.27;;;12.36;54.81
77450;BME280;66536;53.150;18.172;2023-03-26T11:09:40;99788.93;;;12.03;57.41
77450;BME280;66536;53.150;18.172;2023-03-26T11:12:27;99794.20;;;11.78;60.07
77450;BME280;66536;53.150;18.172;2023-03-26T11:15:25;99795.08;;;11.88;60.87
77450;BME280;66536;53.150;18.172;2023-03-26T11:21:30;99786.39;;;12.21;59.58
77450;BME280;66536;53.150;18.172;2023-03-26T11:24:32;99782.09;;;12.36;58.71
77450;BME280;66536;53.150;18.172;2023-03-26T11:27:13;99774.00;;;12.36;58.24
77450;BME280;66536;53.150;18.172;2023-03-26T11:30:10;99773.30;;;12.34;58.73
77450;BME280;66536;53.150;18.172;2023-03-26T11:32:55;99779.91;;;12.28;57.19
77450;BME280;66536;53.150;18.172;2023-03-26T11:35:54;99776.19;;;12.18;58.20
77450;BME280;66536;53.150;18.172;2023-03-26T11:41:45;99789.00;;;12.68;56.71
77450;BME280;66536;53.150;18.172;2023-03-26T11:44:50;99780.23;;;13.04;55.21
77450;BME280;66536;53.150;18.172;2023-03-26T11:48:34;99782.77;;;13.43;53.66
77450;BME280;66536;53.150;18.172;2023-03-26T11:51:55;99796.27;;;13.83;50.89
77450;BME280;66536;53.150;18.172;2023-03-26T11:55:23;99821.42;;;13.46;50.09
77450;BME280;66536;53.150;18.172;2023-03-26T11:57:57;99810.73;;;12.63;52.28
77450;BME280;66536;53.150;18.172;2023-03-26T12:00:27;99808.52;;;12.22;53.96
77450;BME280;66536;53.150;18.172;2023-03-26T12:03:00;99809.85;;;12.24;54.13
77450;BME280;66536;53.150;18.172;2023-03-26T12:05:28;99802.61;;;12.49;54.42
77450;BME280;66536;53.150;18.172;2023-03-26T12:08:02;99800.45;;;12.71;54.32
77450;BME280;66536;53.150;18.172;2023-03-26T12:10:57;99793.88;;;12.59;54.72
77450;BME280;66536;53.150;18.172;2023-03-26T12:13:32;99795.77;;;12.43;55.41
77450;BME280;66536;53.150;18.172;2023-03-26T12:16:08;99797.98;;;12.22;55.95
77450;BME280;66536;53.150;18.172;2023-03-26T12:18:35;99800.96;;;12.09;57.03
77450;BME280;66536;53.150;18.172;2023-03-26T12:21:09;99803.46;;;12.17;57.62
77450;BME280;66536;53.150;18.172;2023-03-26T12:26:35;99804.59;;;12.12;58.48
77450;BME280;66536;53.150;18.172;2023-03-26T12:29:12;99806.15;;;11.96;58.55
77450;BME280;66536;53.150;18.172;2023-03-26T12:34:20;99802.52;;;11.64;61.10
77450;BME280;66536;53.150;18.172;2023-03-26T12:37:03;99801.50;;;11.83;61.94
77450;BME280;66536;53.150;18.172;2023-03-26T12:39:34;99806.65;;;12.41;61.33
77450;BME280;66536;53.150;18.172;2023-03-26T12:42:25;99801.65;;;12.79;60.82
77450;BME280;66536;53.150;18.172;2023-03-26T12:45:18;99804.16;;;12.73;59.50
77450;BME280;66536;53.150;18.172;2023-03-26T12:47:45;99796.34;;;12.42;58.38
77450;BME280;66536;53.150;18.172;2023-03-26T12:50:14;99799.44;;;12.26;58.19
77450;BME280;66536;53.150;18.172;2023-03-26T12:55:58;99794.05;;;12.96;57.42
77450;BME280;66536;53.150;18.172;2023-03-26T13:01:31;99793.52;;;13.46;56.72
77450;BME280;66536;53.150;18.172;2023-03-26T13:04:28;99791.70;;;13.57;55.86
77450;BME280;66536;53.150;18.172;2023-03-26T13:07:14;99786.73;;;13.62;55.21
77450;BME280;66536;53.150;18.172;2023-03-26T13:15:50;99781.58;;;13.12;55.03
77450;BME280;66536;53.150;18.172;2023-03-26T13:18:45;99780.62;;;12.79;56.41
77450;BME280;66536;53.150;18.172;2023-03-26T13:24:23;99771.64;;;12.42;55.28
77450;BME280;66536;53.150;18.172;2023-03-26T13:27:04;99775.26;;;12.26;55.78
77450;BME280;66536;53.150;18.172;2023-03-26T13:29:47;99773.31;;;12.28;55.45
77450;BME280;66536;53.150;18.172;2023-03-26T13:35:18;99780.55;;;12.61;54.08
77450;BME280;66536;53.150;18.172;2023-03-26T13:38:00;99779.59;;;12.67;52.77
77450;BME280;66536;53.150;18.172;2023-03-26T13:40:47;99778.02;;;12.69;53.71
77450;BME280;66536;53.150;18.172;2023-03-26T13:43:47;99776.34;;;12.78;53.00
77450;BME280;66536;53.150;18.172;2023-03-26T13:46:31;99772.77;;;12.73;52.80
77450;BME280;66536;53.150;18.172;2023-03-26T13:49:36;99775.72;;;12.65;53.05
77450;BME280;66536;53.150;18.172;2023-03-26T13:52:18;99776.56;;;12.66;53.08
77450;BME280;66536;53.150;18.172;2023-03-26T13:57:59;99779.71;;;12.65;53.43
77450;BME280;66536;53.150;18.172;2023-03-26T14:03:36;99774.54;;;12.79;53.94
77450;BME280;66536;53.150;18.172;2023-03-26T14:06:11;99772.23;;;13.04;53.72
77450;BME280;66536;53.150;18.172;2023-03-26T14:08:55;99772.08;;;13.24;53.49
77450;BME280;66536;53.150;18.172;2023-03-26T14:11:39;99774.21;;;13.34;52.73
77450;BME280;66536;53.150;18.172;2023-03-26T14:14:32;99772.35;;;13.35;52.81
77450;BME280;66536;53.150;18.172;2023-03-26T14:17:13;99771.30;;;13.24;52.76
77450;BME280;66536;53.150;18.172;2023-03-26T14:29:08;99759.72;;;12.43;53.97
77450;BME280;66536;53.150;18.172;2023-03-26T14:34:52;99755.28;;;12.33;53.69
77450;BME280;66536;53.150;18.172;2023-03-26T14:40:29;99756.54;;;12.23;53.36
77450;BME280;66536;53.150;18.172;2023-03-26T14:43:27;99760.81;;;12.18;53.57
77450;BME280;66536;53.150;18.172;2023-03-26T14:49:04;99763.95;;;12.30;52.75
77450;BME280;66536;53.150;18.172;2023-03-26T14:52:02;99756.12;;;12.27;53.02
77450;BME280;66536;53.150;18.172;2023-03-26T14:54:36;99754.23;;;12.26;52.25
77450;BME280;66536;53.150;18.172;2023-03-26T15:00:30;99759.10;;;12.24;52.67
77450;BME280;66536;53.150;18.172;2023-03-26T15:03:34;99756.42;;;12.29;52.38
77450;BME280;66536;53.150;18.172;2023-03-26T15:09:18;99752.20;;;12.06;52.10
77450;BME280;66536;53.150;18.172;2023-03-26T15:33:03;99776.99;;;12.35;53.95
77450;BME280;66536;53.150;18.172;2023-03-26T15:38:47;99779.65;;;11.76;55.27
77450;BME280;66536;53.150;18.172;2023-03-26T15:41:38;99781.34;;;11.57;55.69
77450;BME280;66536;53.150;18.172;2023-03-26T15:44:42;99779.54;;;11.40;55.93
77450;BME280;66536;53.150;18.172;2023-03-26T15:47:30;99776.30;;;11.63;55.61
77450;BME280;66536;53.150;18.172;2023-03-26T15:53:35;99777.73;;;13.38;52.40
77450;BME280;66536;53.150;18.172;2023-03-26T15:56:12;99779.16;;;13.92;51.64
77450;BME280;66536;53.150;18.172;2023-03-26T15:59:04;99777.77;;;14.02;50.63
77450;BME280;66536;53.150;18.172;2023-03-26T16:01:50;99781.38;;;13.34;50.94
77450;BME280;66536;53.150;18.172;2023-03-26T16:07:33;99787.71;;;12.08;52.14
77450;BME280;66536;53.150;18.172;2023-03-26T16:10:17;99784.27;;;11.58;53.62
77450;BME280;66536;53.150;18.172;2023-03-26T16:15:29;99788.98;;;11.01;55.21
77450;BME280;66536;53.150;18.172;2023-03-26T16:23:51;99793.17;;;10.64;56.93
77450;BME280;66536;53.150;18.172;2023-03-26T16:26:26;99789.65;;;10.52;57.44
77450;BME280;66536;53.150;18.172;2023-03-26T16:29:15;99793.96;;;10.45;57.84
77450;BME280;66536;53.150;18.172;2023-03-26T16:34:39;99797.23;;;10.36;58.63
77450;BME280;66536;53.150;18.172;2023-03-26T16:46:11;99815.31;;;10.02;59.16
77450;BME280;66536;53.150;18.172;2023-03-26T16:52:01;99817.89;;;9.72;59.94
77450;BME280;66536;53.150;18.172;2023-03-26T16:54:51;99816.26;;;9.55;60.42
77450;BME280;66536;53.150;18.172;2023-03-26T16:57:36;99818.00;;;9.38;61.41
77450;BME280;66536;53.150;18.172;2023-03-26T17:03:26;99816.47;;;9.13;62.14
77450;BME280;66536;53.150;18.172;2023-03-26T17:06:03;99817.16;;;9.02;62.29
77450;BME280;66536;53.150;18.172;2023-03-26T17:11:32;99820.51;;;8.80;63.34
77450;BME280;66536;53.150;18.172;2023-03-26T17:14:21;99817.41;;;8.69;63.62
77450;BME280;66536;53.150;18.172;2023-03-26T17:17:07;99817.88;;;8.57;63.81
77450;BME280;66536;53.150;18.172;2023-03-26T17:19:38;99820.85;;;8.46;64.11
77450;BME280;66536;53.150;18.172;2023-03-26T17:28:46;99832.33;;;8.09;65.37
77450;BME280;66536;53.150;18.172;2023-03-26T17:37:04;99845.70;;;7.87;65.81
77450;BME280;66536;53.150;18.172;2023-03-26T17:42:59;99848.97;;;7.71;66.18
77450;BME280;66536;53.150;18.172;2023-03-26T17:45:33;99851.05;;;7.64;66.41
77450;BME280;66536;53.150;18.172;2023-03-26T17:48:13;99851.04;;;7.56;66.60
77450;BME280;66536;53.150;18.172;2023-03-26T17:50:49;99848.54;;;7.48;67.02
77450;BME280;66536;53.150;18.172;2023-03-26T17:53:29;99853.06;;;7.40;67.01
77450;BME280;66536;53.150;18.172;2023-03-26T17:55:58;99849.59;;;7.32;67.07
77450;BME280;66536;53.150;18.172;2023-03-26T17:58:33;99848.14;;;7.25;67.30
77450;BME280;66536;53.150;18.172;2023-03-26T18:01:19;99850.48;;;7.16;67.31
77450;BME280;66536;53.150;18.172;2023-03-26T18:03:51;99847.50;;;7.07;67.56
77450;BME280;66536;53.150;18.172;2023-03-26T18:06:43;99851.98;;;7.02;67.42
77450;BME280;66536;53.150;18.172;2023-03-26T18:17:49;99849.32;;;6.81;67.04
77450;BME280;66536;53.150;18.172;2023-03-26T18:20:22;99848.39;;;6.75;66.97
77450;BME280;66536;53.150;18.172;2023-03-26T18:22:50;99848.29;;;6.68;67.38
77450;BME280;66536;53.150;18.172;2023-03-26T18:25:27;99846.79;;;6.62;67.15
77450;BME280;66536;53.150;18.172;2023-03-26T18:27:59;99845.86;;;6.55;67.04
77450;BME280;66536;53.150;18.172;2023-03-26T18:30:28;99845.64;;;6.47;67.29
77450;BME280;66536;53.150;18.172;2023-03-26T18:36:14;99839.16;;;6.33;67.90
77450;BME280;66536;53.150;18.172;2023-03-26T18:38:42;99840.71;;;6.29;67.99
77450;BME280;66536;53.150;18.172;2023-03-26T18:41:24;99840.75;;;6.26;68.35
77450;BME280;66536;53.150;18.172;2023-03-26T18:44:00;99840.39;;;6.24;67.97
77450;BME280;66536;53.150;18.172;2023-03-26T18:46:27;99837.39;;;6.22;68.34
77450;BME280;66536;53.150;18.172;2023-03-26T18:49:18;99837.27;;;6.17;68.32
77450;BME280;66536;53.150;18.172;2023-03-26T18:51:46;99848.14;;;6.13;67.80
77450;BME280;66536;53.150;18.172;2023-03-26T18:54:34;99856.57;;;6.09;67.01
77450;BME280;66536;53.150;18.172;2023-03-26T19:04:15;99864.86;;;6.11;65.89
77450;BME280;66536;53.150;18.172;2023-03-26T19:06:49;99869.23;;;6.07;66.28
77450;BME280;66536;53.150;18.172;2023-03-26T19:09:21;99866.19;;;6.04;66.87
77450;BME280;66536;53.150;18.172;2023-03-26T19:15:04;99873.19;;;6.02;68.76
77450;BME280;66536;53.150;18.172;2023-03-26T19:17:45;99869.55;;;5.99;69.90
77450;BME280;66536;53.150;18.172;2023-03-26T19:20:21;99873.30;;;5.97;70.02
77450;BME280;66536;53.150;18.172;2023-03-26T19:23:17;99875.98;;;5.92;70.16
77450;BME280;66536;53.150;18.172;2023-03-26T19:25:48;99879.02;;;5.87;70.57
77450;BME280;66536;53.150;18.172;2023-03-26T19:28:21;99881.26;;;5.83;70.87
77450;BME280;66536;53.150;18.172;2023-03-26T19:30:53;99880.30;;;5.78;71.29
77450;BME280;66536;53.150;18.172;2023-03-26T19:33:21;99883.62;;;5.74;71.37
77450;BME280;66536;53.150;18.172;2023-03-26T19:35:55;99884.08;;;5.68;71.61
77450;BME280;66536;53.150;18.172;2023-03-26T19:38:28;99883.23;;;5.60;71.92
77450;BME280;66536;53.150;18.172;2023-03-26T19:41:04;99880.25;;;5.52;72.14
77450;BME280;66536;53.150;18.172;2023-03-26T19:43:31;99875.60;;;5.46;72.16
77450;BME280;66536;53.150;18.172;2023-03-26T19:45:58;99877.61;;;5.41;72.33
77450;BME280;66536;53.150;18.172;2023-03-26T19:48:31;99878.05;;;5.36;72.62
77450;BME280;66536;53.150;18.172;2023-03-26T19:51:02;99886.95;;;5.32;72.55
77450;BME280;66536;53.150;18.172;2023-03-26T19:53:33;99886.50;;;5.26;72.64
77450;BME280;66536;53.150;18.172;2023-03-26T19:56:13;99890.85;;;5.21;72.99
77450;BME280;66536;53.150;18.172;2023-03-26T19:58:41;99899.77;;;5.17;73.12
77450;BME280;66536;53.150;18.172;2023-03-26T20:01:20;99898.36;;;5.13;73.13
77450;BME280;66536;53.150;18.172;2023-03-26T20:03:49;99901.41;;;5.09;73.45
77450;BME280;66536;53.150;18.172;2023-03-26T20:06:19;99899.98;;;5.05;73.63
77450;BME280;66536;53.150;18.172;2023-03-26T20:08:46;99893.33;;;5.01;73.72
77450;BME280;66536;53.150;18.172;2023-03-26T20:11:20;99892.64;;;4.97;74.28
77450;BME280;66536;53.150;18.172;2023-03-26T20:13:48;99894.26;;;4.92;73.85
77450;BME280;66536;53.150;18.172;2023-03-26T20:16:25;99895.38;;;4.86;73.87
77450;BME280;66536;53.150;18.172;2023-03-26T20:18:52;99895.14;;;4.80;73.81
77450;BME280;66536;53.150;18.172;2023-03-26T20:21:24;99890.91;;;4.73;74.11
77450;BME280;66536;53.150;18.172;2023-03-26T20:23:51;99896.50;;;4.68;74.28
77450;BME280;66536;53.150;18.172;2023-03-26T20:26:19;99896.64;;;4.64;74.07
77450;BME280;66536;53.150;18.172;2023-03-26T20:28:45;99896.41;;;4.59;74.12
77450;BME280;66536;53.150;18.172;2023-03-26T20:31:14;99897.80;;;4.54;74.18
77450;BME280;66536;53.150;18.172;2023-03-26T20:33:42;99901.13;;;4.51;74.14
77450;BME280;66536;53.150;18.172;2023-03-26T20:36:11;99895.08;;;4.48;74.23
77450;BME280;66536;53.150;18.172;2023-03-26T20:38:43;99898.95;;;4.44;74.39
77450;BME280;66536;53.150;18.172;2023-03-26T20:41:17;99896.41;;;4.39;74.53
77450;BME280;66536;53.150;18.172;2023-03-26T20:43:45;99898.98;;;4.34;74.62
77450;BME280;66536;53.150;18.172;2023-03-26T20:46:16;99894.77;;;4.28;74.68
77450;BME280;66536;53.150;18.172;2023-03-26T20:48:43;99895.88;;;4.21;74.77
77450;BME280;66536;53.150;18.172;2023-03-26T20:51:11;99894.94;;;4.12;75.06
77450;BME280;66536;53.150;18.172;2023-03-26T20:53:42;99895.85;;;4.05;75.20
77450;BME280;66536;53.150;18.172;2023-03-26T20:56:28;99896.33;;;3.97;75.36